createdAt,value
2019-04-04T00:04:23.392Z,27.00
2019-04-04T00:14:28.682Z,28.87
2019-04-04T00:24:34.059Z,34.60
2019-04-04T00:34:39.411Z,36.83
2019-04-04T00:44:44.887Z,38.23
2019-04-04T00:54:50.219Z,32.20
2019-04-04T01:04:55.611Z,33.53
2019-04-04T01:15:01.004Z,33.37
2019-04-04T01:25:10.735Z,29.40
2019-04-04T01:35:16.145Z,30.77
2019-04-04T01:45:21.393Z,29.72
2019-04-04T01:55:26.638Z,29.10
2019-04-04T02:05:32.105Z,30.07
2019-04-04T02:15:37.479Z,32.77
2019-04-04T02:25:42.594Z,34.00
2019-04-04T02:35:48.026Z,35.70
2019-04-04T02:45:53.249Z,30.00
2019-04-04T02:56:02.308Z,32.50
2019-04-04T03:06:05.543Z,34.65
2019-04-04T03:16:10.761Z,31.60
2019-04-04T03:26:19.024Z,41.33
2019-04-04T03:36:22.739Z,47.13
2019-04-04T03:46:27.987Z,33.63
2019-04-04T03:56:38.965Z,38.83
2019-04-04T04:06:42.115Z,39.23
2019-04-04T04:16:47.092Z,33.70
2019-04-04T04:26:52.665Z,24.97
2019-04-04T04:36:57.990Z,35.60
2019-04-04T04:47:03.288Z,31.15
2019-04-04T04:57:08.882Z,32.30
2019-04-04T05:07:14.391Z,32.63
2019-04-04T05:17:19.895Z,29.32
2019-04-04T05:27:25.067Z,31.97
2019-04-04T05:37:30.723Z,30.20
2019-04-04T05:47:36.117Z,36.90
2019-04-04T05:57:41.693Z,31.73
2019-04-04T06:07:47.206Z,32.00
2019-04-04T06:17:52.562Z,30.40
2019-04-04T06:27:58.402Z,29.90
2019-04-04T06:38:03.965Z,34.07
2019-04-04T06:48:09.401Z,32.93
2019-04-04T06:58:17.007Z,30.07
2019-04-04T07:08:22.602Z,34.45
2019-04-04T07:18:27.851Z,30.03
2019-04-04T07:28:33.729Z,33.70
2019-04-04T07:38:39.136Z,29.90
2019-04-04T07:48:44.564Z,32.33
2019-04-04T07:58:50.285Z,28.57
2019-04-04T08:08:55.681Z,29.80
2019-04-04T08:19:01.402Z,16.12
2019-04-04T08:29:07.240Z,25.75
2019-04-04T08:39:13.520Z,27.45
2019-04-04T08:49:19.042Z,26.17
2019-04-04T08:59:24.841Z,25.80
2019-04-04T09:09:30.612Z,27.45
2019-04-04T09:19:36.443Z,23.45
2019-04-04T09:29:42.120Z,25.77
2019-04-04T09:39:47.763Z,26.90
2019-04-04T09:49:53.401Z,24.67
2019-04-04T09:59:59.082Z,23.10
2019-04-04T10:10:08.122Z,17.45
2019-04-04T10:20:14.004Z,14.73
2019-04-04T10:30:20.960Z,20.88
2019-04-04T10:40:26.643Z,17.65
2019-04-04T10:50:32.114Z,18.35
2019-04-04T11:00:38.783Z,19.55
2019-04-04T11:10:45.182Z,20.08
2019-04-04T11:20:50.486Z,18.70
2019-04-04T11:30:56.127Z,17.75
2019-04-04T11:41:01.711Z,19.77
2019-04-04T11:51:06.994Z,18.60
2019-04-04T12:01:16.047Z,18.90
2019-04-04T12:11:22.765Z,17.50
2019-04-04T12:21:28.646Z,19.70
2019-04-04T12:31:34.364Z,17.90
2019-04-04T12:41:40.067Z,16.07
2019-04-04T12:51:45.632Z,19.35
2019-04-04T13:01:51.108Z,20.00
2019-04-04T13:11:57.014Z,15.65
2019-04-04T13:22:02.326Z,18.37
2019-04-04T13:32:07.899Z,15.38
2019-04-04T13:42:13.448Z,28.87
2019-04-04T13:52:18.807Z,16.00
2019-04-04T14:02:24.266Z,18.40
2019-04-04T14:12:29.828Z,14.55
2019-04-04T14:22:35.534Z,16.07
2019-04-04T14:32:41.176Z,14.35
2019-04-04T14:42:46.587Z,17.07
2019-04-04T14:52:52.422Z,19.30
2019-04-04T15:02:57.942Z,17.48
2019-04-04T15:13:03.586Z,16.37
2019-04-04T15:23:09.305Z,17.75
2019-04-04T15:33:15.840Z,15.68
2019-04-04T15:43:21.204Z,17.90
2019-04-04T15:53:26.848Z,15.03
2019-04-04T16:03:32.769Z,18.55
2019-04-04T16:13:38.488Z,18.57
2019-04-04T16:23:43.908Z,20.25
2019-04-04T16:33:49.535Z,19.10
2019-04-04T16:43:55.280Z,19.98
2019-04-04T16:54:00.746Z,18.35
2019-04-04T17:04:06.426Z,31.27
2019-04-04T17:14:12.126Z,20.15
2019-04-04T17:24:17.848Z,20.72
2019-04-04T17:34:24.027Z,20.05
2019-04-04T17:44:29.835Z,20.17
2019-04-04T17:54:37.318Z,15.05
2019-04-04T18:04:48.525Z,23.80
2019-04-04T18:14:50.943Z,21.40
2019-04-04T18:24:56.592Z,24.35
2019-04-04T18:35:02.509Z,25.92
2019-04-04T18:45:08.726Z,22.20
2019-04-04T18:55:19.983Z,27.37
2019-04-04T19:05:22.103Z,23.20
2019-04-04T19:15:27.710Z,21.04
2019-04-04T19:25:33.587Z,28.07
2019-04-04T19:35:39.410Z,21.80
2019-04-04T19:45:45.205Z,21.20
2019-04-04T19:55:50.828Z,24.57
2019-04-04T20:05:56.746Z,25.80
2019-04-04T20:16:02.516Z,26.90
2019-04-04T20:26:08.295Z,23.97
2019-04-04T20:36:14.107Z,24.43
2019-04-04T20:46:19.887Z,28.77
2019-04-04T20:56:25.725Z,26.07
2019-04-04T21:06:31.397Z,24.47
2019-04-04T21:16:36.920Z,28.57
2019-04-04T21:26:42.366Z,30.47
2019-04-04T21:36:47.768Z,32.30
2019-04-04T21:46:53.318Z,32.00
2019-04-04T21:56:58.948Z,35.93
2019-04-04T22:07:04.466Z,30.53
2019-04-04T22:17:10.926Z,32.30
2019-04-04T22:27:16.310Z,26.68
2019-04-04T22:37:22.024Z,31.07
2019-04-04T22:47:27.290Z,29.57
2019-04-04T22:57:32.806Z,30.43
2019-04-04T23:07:38.055Z,33.90
2019-04-04T23:17:45.460Z,33.93
2019-04-04T23:27:50.866Z,34.00
2019-04-04T23:37:56.487Z,33.97
2019-04-04T23:48:01.976Z,30.57
2019-04-04T23:58:07.565Z,30.50
